Terminal Aerodrome Forecast
Issued by NWS Paducah, KY

Home | Current Version | Previous Version | Text Only | Print | Product List | Glossary On
Versions: 1 2 3 4 5 6 7 8 9 10 11 12 13 14 15 16 17 18 19 20 21 22 23
000
FTUS43 KPAH 051128
TAFEVV
TAF
KEVV 051128Z 0512/0612 04003KT 4SM BR SCT040 OVC250
      TEMPO 0512/0513 2SM BR
     FM051500 04004KT 6SM HZ BKN040
     FM060600 VRB02KT 4SM BR SCT250=

USA.gov is the U.S. government's official web portal to all federal, state and local government web resources and services.